createdAt,value
2022-12-25T00:00:08.529Z,92.50
2022-12-25T00:02:37.985Z,84.97
2022-12-25T00:05:06.397Z,62.30
2022-12-25T00:07:34.042Z,65.00
2022-12-25T00:10:01.582Z,71.63
2022-12-25T00:12:29.096Z,75.57
2022-12-25T00:14:56.589Z,80.37
2022-12-25T00:17:24.071Z,66.90
2022-12-25T00:19:53.192Z,54.33
2022-12-25T00:22:20.723Z,48.27
2022-12-25T00:24:48.888Z,16.40
2022-12-25T00:27:16.921Z,13.60
2022-12-25T00:29:44.487Z,10.83
2022-12-25T00:32:11.972Z,11.93
2022-12-25T00:34:39.495Z,31.07
2022-12-25T00:37:08.361Z,174.43
2022-12-25T00:39:35.880Z,63.60
2022-12-25T00:42:21.452Z,180.90
2022-12-25T00:44:50.195Z,171.37
2022-12-25T00:47:18.870Z,132.63
2022-12-25T00:49:46.734Z,57.30
2022-12-25T00:52:15.558Z,61.67
2022-12-25T00:54:43.055Z,96.73
2022-12-25T00:57:10.583Z,107.70
2022-12-25T00:59:38.073Z,28.50
2022-12-25T01:02:19.634Z,50.03
2022-12-25T01:04:47.220Z,111.10
2022-12-25T01:07:17.669Z,113.53
2022-12-25T01:10:03.807Z,49.37
2022-12-25T01:12:31.525Z,57.00
2022-12-25T01:14:59.223Z,26.70
2022-12-25T01:17:26.769Z,28.40
2022-12-25T01:19:54.252Z,47.90
2022-12-25T01:22:23.142Z,71.10
2022-12-25T01:24:50.640Z,57.93
2022-12-25T01:27:18.415Z,75.77
2022-12-25T01:29:47.083Z,25.33
2022-12-25T01:32:14.689Z,86.90
2022-12-25T01:34:42.240Z,60.47
2022-12-25T01:37:09.790Z,149.83
2022-12-25T01:39:38.839Z,85.50
2022-12-25T01:42:06.649Z,45.50
2022-12-25T01:45:07.861Z,58.63
2022-12-25T01:47:35.412Z,43.50
2022-12-25T01:50:02.925Z,23.97
2022-12-25T01:52:31.704Z,32.27
2022-12-25T01:55:04.208Z,106.47
2022-12-25T01:57:35.473Z,124.27
2022-12-25T02:00:04.486Z,64.13
2022-12-25T02:02:32.630Z,129.93
2022-12-25T02:05:04.406Z,110.83
2022-12-25T02:07:35.709Z,82.70
2022-12-25T02:10:04.914Z,36.73
2022-12-25T02:12:34.983Z,52.97
2022-12-25T02:15:06.243Z,32.33
2022-12-25T02:17:40.383Z,32.43
2022-12-25T02:20:41.453Z,46.03
2022-12-25T02:23:34.365Z,59.20
2022-12-25T02:26:16.436Z,58.03
2022-12-25T02:28:53.478Z,17.10
2022-12-25T02:31:28.711Z,25.27
2022-12-25T02:34:03.250Z,24.67
2022-12-25T02:36:38.577Z,11.50
2022-12-25T02:39:30.029Z,15.90
2022-12-25T02:42:01.646Z,42.67
2022-12-25T02:44:51.036Z,82.00
2022-12-25T02:47:37.119Z,249.10
2022-12-25T02:50:24.941Z,205.90
2022-12-25T02:53:23.845Z,206.57
2022-12-25T02:56:10.027Z,85.83
2022-12-25T02:59:12.350Z,168.23
2022-12-25T03:02:01.477Z,143.43
2022-12-25T03:04:47.918Z,134.57
2022-12-25T03:07:19.667Z,100.73
2022-12-25T03:10:09.161Z,32.83
2022-12-25T03:12:42.220Z,28.10
2022-12-25T03:15:29.451Z,228.77
2022-12-25T03:18:01.632Z,38.37
2022-12-25T03:20:48.492Z,76.27
2022-12-25T03:23:37.512Z,89.93
2022-12-25T03:26:25.305Z,140.17
2022-12-25T03:28:52.853Z,124.30
2022-12-25T03:31:25.729Z,217.40
2022-12-25T03:34:26.622Z,85.37
2022-12-25T03:37:28.228Z,164.90
2022-12-25T03:40:23.752Z,213.60
2022-12-25T03:43:14.698Z,197.90
2022-12-25T03:46:04.895Z,213.03
2022-12-25T03:48:52.930Z,166.90
2022-12-25T03:51:45.094Z,51.40
2022-12-25T03:54:32.968Z,15.33
2022-12-25T03:57:19.110Z,11.57
2022-12-25T04:00:04.499Z,17.63
2022-12-25T04:02:49.699Z,13.37
2022-12-25T04:05:37.349Z,9.90
2022-12-25T04:08:23.948Z,16.20
2022-12-25T04:11:08.988Z,11.73
2022-12-25T04:13:54.466Z,41.80
2022-12-25T04:16:39.485Z,39.33
2022-12-25T04:19:39.324Z,18.60
2022-12-25T04:22:24.413Z,46.70
2022-12-25T04:25:10.787Z,90.07
2022-12-25T04:27:58.411Z,64.00
2022-12-25T04:30:43.795Z,64.63
2022-12-25T04:33:28.843Z,46.17
2022-12-25T04:36:11.548Z,52.47
2022-12-25T04:38:40.231Z,50.67
2022-12-25T04:41:10.527Z,47.37
2022-12-25T04:43:38.579Z,48.67
2022-12-25T04:46:06.795Z,30.53
2022-12-25T04:48:36.465Z,38.10
2022-12-25T04:51:15.383Z,58.00
2022-12-25T04:53:43.127Z,194.97
2022-12-25T04:56:12.091Z,88.47
2022-12-25T04:58:39.617Z,110.53
2022-12-25T05:01:07.382Z,78.73
2022-12-25T05:03:35.165Z,128.10
2022-12-25T05:06:04.237Z,218.97
2022-12-25T05:08:33.367Z,131.90
2022-12-25T05:11:01.031Z,28.93
2022-12-25T05:13:29.844Z,45.13
2022-12-25T05:15:57.418Z,25.23
2022-12-25T05:18:24.951Z,46.77
2022-12-25T05:20:53.862Z,54.67
2022-12-25T05:23:21.738Z,52.33
2022-12-25T05:25:49.284Z,40.20
2022-12-25T05:28:16.828Z,34.47
2022-12-25T05:30:45.718Z,9.20
2022-12-25T05:33:13.207Z,11.53
2022-12-25T05:35:41.003Z,13.53
2022-12-25T05:38:09.192Z,49.20
2022-12-25T05:40:40.702Z,31.30
2022-12-25T05:43:08.637Z,27.40
2022-12-25T05:45:36.244Z,35.53
2022-12-25T05:48:05.156Z,25.40
2022-12-25T05:50:32.645Z,34.57
2022-12-25T05:53:04.428Z,32.03
2022-12-25T05:55:35.834Z,30.87
2022-12-25T05:58:03.664Z,40.93
2022-12-25T06:00:31.195Z,51.50
2022-12-25T06:02:59.030Z,34.80
2022-12-25T06:05:28.062Z,35.50
2022-12-25T06:07:55.591Z,41.23
2022-12-25T06:10:23.499Z,30.27
2022-12-25T06:12:51.004Z,55.20
2022-12-25T06:15:18.649Z,19.10
2022-12-25T06:17:46.168Z,24.10
2022-12-25T06:20:13.674Z,17.43
2022-12-25T06:22:42.488Z,15.60
2022-12-25T06:25:10.767Z,31.13
2022-12-25T06:27:38.347Z,31.43
2022-12-25T06:30:07.078Z,22.27
2022-12-25T06:32:34.564Z,21.77
2022-12-25T06:35:02.031Z,29.63
2022-12-25T06:37:29.526Z,33.57
2022-12-25T06:39:58.384Z,45.17
2022-12-25T06:42:25.945Z,55.63
2022-12-25T06:44:53.415Z,67.67
2022-12-25T06:47:20.874Z,44.67
2022-12-25T06:49:48.373Z,45.57
2022-12-25T06:52:15.855Z,45.57
2022-12-25T06:54:43.367Z,92.60
2022-12-25T06:57:12.194Z,87.90
2022-12-25T06:59:39.688Z,56.20
2022-12-25T07:02:07.255Z,93.20
2022-12-25T07:04:39.107Z,67.53
2022-12-25T07:07:09.189Z,83.90
2022-12-25T07:09:38.877Z,69.27
2022-12-25T07:12:08.656Z,59.53
2022-12-25T07:14:37.489Z,80.57
2022-12-25T07:17:04.977Z,74.47
2022-12-25T07:19:32.474Z,60.23
2022-12-25T07:21:59.987Z,84.10
2022-12-25T07:24:27.550Z,69.00
2022-12-25T07:26:55.025Z,65.33
2022-12-25T07:29:22.498Z,85.57
2022-12-25T07:31:51.373Z,65.83
2022-12-25T07:34:19.004Z,68.03
2022-12-25T07:36:46.577Z,73.43
2022-12-25T07:39:14.129Z,71.13
2022-12-25T07:41:41.617Z,84.20
2022-12-25T07:44:09.073Z,79.73
2022-12-25T07:46:36.551Z,44.53
2022-12-25T07:49:05.549Z,71.13
2022-12-25T07:51:33.048Z,64.03
2022-12-25T07:54:00.549Z,82.03
2022-12-25T07:56:28.263Z,74.30
2022-12-25T07:58:55.756Z,79.87
2022-12-25T08:01:26.682Z,79.87
2022-12-25T08:03:55.981Z,72.87
2022-12-25T08:06:29.629Z,85.33
2022-12-25T08:08:57.452Z,73.13
2022-12-25T08:11:25.029Z,49.60
2022-12-25T08:13:52.609Z,38.80
2022-12-25T08:16:20.209Z,21.13
2022-12-25T08:18:47.756Z,70.93
2022-12-25T08:21:16.267Z,49.53
2022-12-25T08:23:46.894Z,34.30
2022-12-25T08:26:16.576Z,38.80
2022-12-25T08:28:44.245Z,49.23
2022-12-25T08:31:15.000Z,61.13
2022-12-25T08:33:42.678Z,58.80
2022-12-25T08:36:12.046Z,64.07
2022-12-25T08:38:40.060Z,71.83
2022-12-25T08:41:09.689Z,27.17
2022-12-25T08:43:37.433Z,33.53
2022-12-25T08:46:05.624Z,35.43
2022-12-25T08:48:33.727Z,51.97
2022-12-25T08:51:01.898Z,36.67
2022-12-25T08:53:29.394Z,35.87
2022-12-25T08:56:00.754Z,29.33
2022-12-25T08:58:29.712Z,28.00
2022-12-25T09:00:57.565Z,56.27
2022-12-25T09:03:25.553Z,62.03
2022-12-25T09:05:53.262Z,47.77
2022-12-25T09:08:21.734Z,41.50
2022-12-25T09:10:49.843Z,53.17
2022-12-25T09:13:17.371Z,45.90
2022-12-25T09:15:46.291Z,55.93
2022-12-25T09:18:13.866Z,52.67
2022-12-25T09:20:41.388Z,87.53
2022-12-25T09:23:13.769Z,42.17
2022-12-25T09:25:41.957Z,59.90
2022-12-25T09:28:09.426Z,32.50
2022-12-25T09:30:36.964Z,75.45
2022-12-25T09:33:05.803Z,117.90
2022-12-25T09:35:33.310Z,138.98
2022-12-25T09:38:00.823Z,136.90
2022-12-25T09:40:31.871Z,156.68
2022-12-25T09:43:00.283Z,78.78
2022-12-25T09:45:32.809Z,67.70
2022-12-25T09:48:00.359Z,166.88
2022-12-25T09:50:40.454Z,213.18
2022-12-25T09:53:11.670Z,180.77
2022-12-25T09:55:44.471Z,105.05
2022-12-25T09:58:13.783Z,66.50
2022-12-25T10:00:44.757Z,130.48
2022-12-25T10:03:24.289Z,77.07
2022-12-25T10:06:08.568Z,111.50
2022-12-25T10:08:54.319Z,185.82
2022-12-25T10:11:36.914Z,139.55
2022-12-25T10:14:18.260Z,127.15
2022-12-25T10:16:53.709Z,101.22
2022-12-25T10:19:39.014Z,144.02
2022-12-25T10:22:15.313Z,138.18
2022-12-25T10:24:47.644Z,104.75
2022-12-25T10:27:21.378Z,162.98
2022-12-25T10:29:53.215Z,119.65
2022-12-25T10:32:20.694Z,132.23
2022-12-25T10:34:48.728Z,137.77
2022-12-25T10:37:18.213Z,69.07
2022-12-25T10:39:47.011Z,40.57
2022-12-25T10:42:38.737Z,59.13
2022-12-25T10:45:09.204Z,51.25
2022-12-25T10:47:42.047Z,76.53
2022-12-25T10:50:12.725Z,72.72
2022-12-25T10:52:56.774Z,26.75
2022-12-25T10:55:28.703Z,31.83
2022-12-25T10:57:57.740Z,35.67
2022-12-25T11:00:28.339Z,30.92
2022-12-25T11:02:56.254Z,37.65
2022-12-25T11:05:29.058Z,45.42
2022-12-25T11:08:00.487Z,29.75
2022-12-25T11:10:31.905Z,22.52
2022-12-25T11:13:00.150Z,22.05
2022-12-25T11:15:35.928Z,37.85
2022-12-25T11:18:03.724Z,28.65
2022-12-25T11:20:32.259Z,18.65
2022-12-25T11:23:01.070Z,36.10
2022-12-25T11:25:29.237Z,38.10
2022-12-25T11:27:59.220Z,44.50
2022-12-25T11:30:26.801Z,51.05
2022-12-25T11:32:56.438Z,44.55
2022-12-25T11:35:31.373Z,24.63
2022-12-25T11:37:59.086Z,29.58
2022-12-25T11:40:35.547Z,18.15
2022-12-25T11:43:08.668Z,23.58
2022-12-25T11:45:39.507Z,21.38
2022-12-25T11:48:13.395Z,23.90
2022-12-25T11:50:44.381Z,23.67
2022-12-25T11:53:20.380Z,23.60
2022-12-25T11:55:54.751Z,29.83
2022-12-25T11:58:30.165Z,33.78
2022-12-25T12:01:00.808Z,29.73
2022-12-25T12:03:34.545Z,30.92
2022-12-25T12:06:05.834Z,26.88
2022-12-25T12:08:35.492Z,17.10
2022-12-25T12:11:18.607Z,26.77
2022-12-25T12:13:58.794Z,18.67
2022-12-25T12:16:26.596Z,19.55
2022-12-25T12:18:54.414Z,16.35
2022-12-25T12:21:24.189Z,20.70
2022-12-25T12:23:54.793Z,37.85
2022-12-25T12:26:25.727Z,12.60
2022-12-25T12:28:56.405Z,25.70
2022-12-25T12:31:24.730Z,31.60
2022-12-25T12:33:56.124Z,23.90
2022-12-25T12:36:35.483Z,48.30
2022-12-25T12:39:05.774Z,106.07
2022-12-25T12:41:46.932Z,72.50
2022-12-25T12:44:16.997Z,57.72
2022-12-25T12:46:53.121Z,224.55
2022-12-25T12:49:26.244Z,121.47
2022-12-25T12:52:05.461Z,173.57
2022-12-25T12:54:33.025Z,164.75
2022-12-25T12:57:03.418Z,29.63
2022-12-25T12:59:38.820Z,13.70
2022-12-25T13:02:28.760Z,24.50
2022-12-25T13:05:01.924Z,22.23
2022-12-25T13:07:44.851Z,20.42
2022-12-25T13:10:26.182Z,19.80
2022-12-25T13:12:59.014Z,19.98
2022-12-25T13:15:29.048Z,29.00
2022-12-25T13:17:59.552Z,26.60
2022-12-25T13:20:37.087Z,17.38
2022-12-25T13:23:15.021Z,27.58
2022-12-25T13:25:42.526Z,111.75
2022-12-25T13:28:15.691Z,93.95
2022-12-25T13:30:43.455Z,41.05
2022-12-25T13:33:19.351Z,25.08
2022-12-25T13:35:47.745Z,20.67
2022-12-25T13:38:18.347Z,269.60
2022-12-25T13:41:12.052Z,85.07
2022-12-25T13:43:42.334Z,64.75
2022-12-25T13:46:13.648Z,140.30
2022-12-25T13:48:41.324Z,39.15
2022-12-25T13:51:15.808Z,25.45
2022-12-25T13:53:43.635Z,25.38
2022-12-25T13:56:15.271Z,26.83
2022-12-25T13:58:46.667Z,23.73
2022-12-25T14:01:18.485Z,24.35
2022-12-25T14:03:48.262Z,32.00
2022-12-25T14:06:19.879Z,25.95
2022-12-25T14:08:48.871Z,43.70
2022-12-25T14:11:20.384Z,70.45
2022-12-25T14:13:52.270Z,93.72
2022-12-25T14:16:21.677Z,121.00
2022-12-25T14:18:54.782Z,89.30
2022-12-25T14:21:30.859Z,122.90
2022-12-25T14:23:58.579Z,81.28
2022-12-25T14:26:28.423Z,67.57
2022-12-25T14:29:15.346Z,56.83
2022-12-25T14:31:46.377Z,48.47
2022-12-25T14:34:18.724Z,37.75
2022-12-25T14:36:46.562Z,9.27
2022-12-25T14:39:29.089Z,10.48
2022-12-25T14:41:56.594Z,8.98
2022-12-25T14:44:33.521Z,7.38
2022-12-25T14:47:06.471Z,5.82
2022-12-25T14:49:34.021Z,7.22
2022-12-25T14:52:10.197Z,6.22
2022-12-25T14:54:38.057Z,10.32
2022-12-25T14:57:06.601Z,7.25
2022-12-25T14:59:35.812Z,6.97
2022-12-25T15:02:03.543Z,8.43
2022-12-25T15:04:31.465Z,8.30
2022-12-25T15:07:01.192Z,10.02
2022-12-25T15:09:29.891Z,23.90
2022-12-25T15:11:57.720Z,9.07
2022-12-25T15:14:25.910Z,7.28
2022-12-25T15:16:57.566Z,12.53
2022-12-25T15:19:31.719Z,74.78
2022-12-25T15:22:03.456Z,17.47
2022-12-25T15:24:30.958Z,8.23
2022-12-25T15:27:00.383Z,8.23
2022-12-25T15:30:07.260Z,15.23
2022-12-25T15:32:20.544Z,6.57
2022-12-25T15:34:49.710Z,8.20
2022-12-25T15:37:18.248Z,8.53
2022-12-25T15:39:45.827Z,6.77
2022-12-25T15:42:14.764Z,11.40
2022-12-25T15:44:43.115Z,13.50
2022-12-25T15:47:11.500Z,11.13
2022-12-25T15:49:40.669Z,9.90
2022-12-25T15:52:11.468Z,14.03
2022-12-25T15:54:38.945Z,12.13
2022-12-25T15:57:07.999Z,18.80
2022-12-25T15:59:35.598Z,8.80
2022-12-25T16:02:03.255Z,19.20
2022-12-25T16:04:31.741Z,10.80
2022-12-25T16:07:00.831Z,127.73
2022-12-25T16:09:28.294Z,10.77
2022-12-25T16:11:55.772Z,15.20
2022-12-25T16:14:23.253Z,11.40
2022-12-25T16:16:50.740Z,9.97
2022-12-25T16:19:18.218Z,9.77
2022-12-25T16:21:47.013Z,9.90
2022-12-25T16:24:16.480Z,17.60
2022-12-25T16:26:44.287Z,23.23
2022-12-25T16:29:11.974Z,25.53
2022-12-25T16:31:41.155Z,12.87
2022-12-25T16:34:09.241Z,16.23
2022-12-25T16:36:38.031Z,13.43
2022-12-25T16:39:06.348Z,17.90
2022-12-25T16:41:35.417Z,26.60
2022-12-25T16:44:09.071Z,17.47
2022-12-25T16:46:37.819Z,14.27
2022-12-25T16:49:05.428Z,26.43
2022-12-25T16:51:32.965Z,31.27
2022-12-25T16:54:00.473Z,32.50
2022-12-25T16:56:30.589Z,34.43
2022-12-25T16:59:00.892Z,28.47
2022-12-25T17:01:28.632Z,23.73
2022-12-25T17:04:01.368Z,16.67
2022-12-25T17:06:29.441Z,21.60
2022-12-25T17:08:58.911Z,17.20
2022-12-25T17:11:29.759Z,22.30
2022-12-25T17:14:01.934Z,22.93
2022-12-25T17:16:31.972Z,22.80
2022-12-25T17:19:02.036Z,30.87
2022-12-25T17:21:30.480Z,28.20
2022-12-25T17:24:03.099Z,27.93
2022-12-25T17:26:31.744Z,23.17
2022-12-25T17:29:00.935Z,30.73
2022-12-25T17:31:29.151Z,35.00
2022-12-25T17:33:57.595Z,31.07
2022-12-25T17:36:25.827Z,24.20
2022-12-25T17:38:53.869Z,25.23
2022-12-25T17:41:21.779Z,22.63
2022-12-25T17:43:49.649Z,21.55
2022-12-25T17:46:20.465Z,18.42
2022-12-25T17:48:49.937Z,17.15
2022-12-25T17:51:19.504Z,16.70
2022-12-25T17:53:48.676Z,17.88
2022-12-25T17:56:17.585Z,16.27
2022-12-25T17:58:46.056Z,12.63
2022-12-25T18:01:16.082Z,12.38
2022-12-25T18:03:45.971Z,14.03
2022-12-25T18:06:15.915Z,21.20
2022-12-25T18:08:45.587Z,22.27
2022-12-25T18:11:16.041Z,21.27
2022-12-25T18:13:45.022Z,16.67
2022-12-25T18:16:13.679Z,17.47
2022-12-25T18:18:47.870Z,16.00
2022-12-25T18:21:20.585Z,13.87
2022-12-25T18:23:48.070Z,11.50
2022-12-25T18:26:15.568Z,12.90
2022-12-25T18:28:43.930Z,14.70
2022-12-25T18:31:14.685Z,17.37
2022-12-25T18:33:42.312Z,19.20
2022-12-25T18:36:11.693Z,23.60
2022-12-25T18:38:40.554Z,22.60
2022-12-25T18:41:09.699Z,19.47
2022-12-25T18:43:52.125Z,18.83
2022-12-25T18:46:24.015Z,18.40
2022-12-25T18:48:52.189Z,18.83
2022-12-25T18:51:20.081Z,18.43
2022-12-25T18:53:48.924Z,15.13
2022-12-25T18:56:18.767Z,14.63
2022-12-25T18:58:46.696Z,14.60
2022-12-25T19:01:15.968Z,13.13
2022-12-25T19:03:44.344Z,12.27
2022-12-25T19:06:18.254Z,9.63
2022-12-25T19:08:46.188Z,16.33
2022-12-25T19:11:15.101Z,17.23
2022-12-25T19:13:42.905Z,18.83
2022-12-25T19:16:11.029Z,31.13
2022-12-25T19:18:39.032Z,37.90
2022-12-25T19:21:08.894Z,37.40
2022-12-25T19:23:37.691Z,30.50
2022-12-25T19:26:05.646Z,30.40
2022-12-25T19:28:34.497Z,33.97
2022-12-25T19:31:02.744Z,43.40
2022-12-25T19:33:32.558Z,28.90
2022-12-25T19:36:01.263Z,21.00
2022-12-25T19:38:29.042Z,36.67
2022-12-25T19:41:02.418Z,44.97
2022-12-25T19:43:30.783Z,49.03
2022-12-25T19:45:59.722Z,28.30
2022-12-25T19:48:27.342Z,35.70
2022-12-25T19:50:55.263Z,26.90
2022-12-25T19:53:24.056Z,38.97
2022-12-25T19:55:52.255Z,39.03
2022-12-25T19:58:19.858Z,32.80
2022-12-25T20:00:59.816Z,28.40
2022-12-25T20:03:28.210Z,16.00
2022-12-25T20:05:55.826Z,21.73
2022-12-25T20:08:23.527Z,28.87
2022-12-25T20:10:51.213Z,17.33
2022-12-25T20:13:19.315Z,20.90
2022-12-25T20:15:47.277Z,24.53
2022-12-25T20:18:17.218Z,26.93
2022-12-25T20:20:45.306Z,16.33
2022-12-25T20:23:12.844Z,15.20
2022-12-25T20:25:41.488Z,26.67
2022-12-25T20:28:10.055Z,40.87
2022-12-25T20:30:39.583Z,32.30
2022-12-25T20:33:07.182Z,38.10
2022-12-25T20:35:36.016Z,24.83
2022-12-25T20:38:03.759Z,26.77
2022-12-25T20:40:41.503Z,48.93
2022-12-25T20:43:18.755Z,49.47
2022-12-25T20:45:46.336Z,53.03
2022-12-25T20:48:13.863Z,50.87
2022-12-25T20:50:42.698Z,46.43
2022-12-25T20:53:10.181Z,58.70
2022-12-25T20:55:37.690Z,42.70
2022-12-25T20:58:05.223Z,42.43
2022-12-25T21:00:32.731Z,36.30
2022-12-25T21:03:00.366Z,52.07
2022-12-25T21:05:27.962Z,36.33
2022-12-25T21:07:56.798Z,64.13
2022-12-25T21:10:24.311Z,59.27
2022-12-25T21:12:51.813Z,37.53
2022-12-25T21:15:19.330Z,56.67
2022-12-25T21:17:46.877Z,45.23
2022-12-25T21:20:14.369Z,34.53
2022-12-25T21:22:42.173Z,31.23
2022-12-25T21:25:11.301Z,34.67
2022-12-25T21:27:38.769Z,31.37
2022-12-25T21:30:15.355Z,16.37
2022-12-25T21:33:00.912Z,21.30
2022-12-25T21:35:28.417Z,23.60
2022-12-25T21:37:55.939Z,29.23
2022-12-25T21:40:24.799Z,25.23
2022-12-25T21:42:53.070Z,24.40
2022-12-25T21:45:21.634Z,34.93
2022-12-25T21:48:00.407Z,29.70
2022-12-25T21:50:48.216Z,21.67
2022-12-25T21:53:16.406Z,36.00
2022-12-25T21:55:56.296Z,21.70
2022-12-25T21:58:23.965Z,45.50
2022-12-25T22:00:51.469Z,36.40
2022-12-25T22:03:19.071Z,29.83
2022-12-25T22:06:04.472Z,45.27
2022-12-25T22:08:32.387Z,35.90
2022-12-25T22:11:03.858Z,46.50
2022-12-25T22:13:48.877Z,44.80
2022-12-25T22:16:33.899Z,52.17
2022-12-25T22:19:19.358Z,49.43
2022-12-25T22:21:46.874Z,47.07
2022-12-25T22:24:14.373Z,39.97
2022-12-25T22:26:44.533Z,51.47
2022-12-25T22:29:12.028Z,53.17
2022-12-25T22:31:46.401Z,29.37
2022-12-25T22:34:16.203Z,28.87
2022-12-25T22:36:43.687Z,33.63
2022-12-25T22:39:11.192Z,73.37
2022-12-25T22:41:38.690Z,26.07
2022-12-25T22:44:17.101Z,51.03
2022-12-25T22:46:45.881Z,70.00
2022-12-25T22:49:15.376Z,70.10
2022-12-25T22:51:43.315Z,63.43
2022-12-25T22:54:13.031Z,72.23
2022-12-25T22:56:40.788Z,76.40
2022-12-25T22:59:09.922Z,33.30
2022-12-25T23:01:37.783Z,47.57
2022-12-25T23:04:07.092Z,28.93
2022-12-25T23:06:34.774Z,73.60
2022-12-25T23:09:02.349Z,43.30
2022-12-25T23:11:30.910Z,87.90
2022-12-25T23:14:16.283Z,77.03
2022-12-25T23:16:45.147Z,90.63
2022-12-25T23:19:31.234Z,65.80
2022-12-25T23:22:16.933Z,85.00
2022-12-25T23:25:02.011Z,36.85
2022-12-25T23:27:29.580Z,62.40
2022-12-25T23:29:56.121Z,59.67
2022-12-25T23:32:27.969Z,32.77
2022-12-25T23:34:56.038Z,32.13
2022-12-25T23:37:24.023Z,15.40
2022-12-25T23:39:51.529Z,13.10
2022-12-25T23:42:19.504Z,14.60
2022-12-25T23:44:46.984Z,35.17
2022-12-25T23:47:14.517Z,37.67
2022-12-25T23:49:43.514Z,33.83
2022-12-25T23:52:13.064Z,67.33
2022-12-25T23:54:40.585Z,36.57
2022-12-25T23:57:08.094Z,22.83
2022-12-25T23:59:35.616Z,21.40
